Time;durP1;ratioP1;P1;durP2;ratioP2;P2;SDS_P1;SDS_P2;PMS_P1;PMS_P2;Temp;Humidity;BMP_temperature;BMP_pressure;BME280_temperature;BME280_humidity;BME280_pressure;Samples;Min_cycle;Max_cycle;Signal;HPM_P1;HPM_P2
2022/06/11 00:01:16;;;;;;;7.15;3.50;;;19.30;99.90;;;;;;4995617;28;20054;-75
2022/06/11 00:03:42;;;;;;;9.77;4.30;;;19.40;99.90;;;;;;4995172;28;20050;-76
2022/06/11 00:06:08;;;;;;;9.00;4.30;;;19.30;99.90;;;;;;4994805;28;20056;-75
2022/06/11 00:08:34;;;;;;;10.25;4.88;;;19.30;99.90;;;;;;4995050;28;20046;-75
2022/06/11 00:11:00;;;;;;;9.98;5.63;;;19.30;99.90;;;;;;4964350;28;20058;-75
2022/06/11 00:13:26;;;;;;;11.93;5.20;;;19.30;99.90;;;;;;4975299;28;20129;-75
2022/06/11 00:15:54;;;;;;;12.13;5.28;;;19.40;99.90;;;;;;4976410;28;20129;-75
2022/06/11 00:18:22;;;;;;;12.93;5.43;;;19.30;99.90;;;;;;4991426;28;20452;-75
2022/06/11 00:20:48;;;;;;;14.77;6.53;;;19.30;99.90;;;;;;4975253;28;20073;-75
2022/06/11 00:23:14;;;;;;;10.90;4.90;;;19.20;99.90;;;;;;4975591;28;20547;-75
2022/06/11 00:25:40;;;;;;;8.95;4.70;;;19.10;99.90;;;;;;4976204;28;20089;-75
2022/06/11 00:28:07;;;;;;;14.80;4.82;;;19.10;99.90;;;;;;4975331;28;20086;-75
2022/06/11 00:30:34;;;;;;;7.47;4.35;;;19.10;99.90;;;;;;4991443;28;20502;-75
2022/06/11 00:32:59;;;;;;;10.00;5.28;;;19.00;99.90;;;;;;4974276;28;20058;-75
2022/06/11 00:35:27;;;;;;;9.40;4.90;;;18.90;99.90;;;;;;4976122;28;20051;-75
2022/06/11 00:37:53;;;;;;;10.07;4.80;;;18.90;99.90;;;;;;4975765;28;20404;-75
2022/06/11 00:40:23;;;;;;;9.60;5.07;;;18.80;99.90;;;;;;4975057;28;20055;-75
2022/06/11 00:42:49;;;;;;;10.63;5.78;;;18.80;99.90;;;;;;4974816;28;20069;-75
2022/06/11 00:45:20;;;;;;;9.55;4.55;;;18.70;99.90;;;;;;4974868;28;20428;-75
2022/06/11 00:47:52;;;;;;;12.65;4.80;;;18.60;99.90;;;;;;4975926;28;20058;-75
2022/06/11 00:50:24;;;;;;;13.27;4.40;;;18.60;99.90;;;;;;4975866;28;20055;-75
2022/06/11 00:52:50;;;;;;;11.88;3.92;;;18.40;99.90;;;;;;4975038;28;20051;-75
2022/06/11 00:55:24;;;;;;;9.65;3.50;;;18.40;99.90;;;;;;4991016;28;20130;-76
2022/06/11 00:58:20;;;;;;;8.05;3.30;;;18.40;99.90;;;;;;4975971;28;20055;-75
2022/06/11 01:00:50;;;;;;;4.43;2.70;;;18.40;99.90;;;;;;4970803;28;20059;-75
2022/06/11 01:03:20;;;;;;;6.25;2.78;;;18.40;99.90;;;;;;4975586;28;20065;-75
2022/06/11 01:06:06;;;;;;;7.45;2.22;;;18.30;99.90;;;;;;4975486;28;20054;-75
2022/06/11 01:08:47;;;;;;;12.85;2.78;;;18.20;99.90;;;;;;4974655;28;20133;-75
2022/06/11 01:11:23;;;;;;;6.32;1.95;;;18.30;99.90;;;;;;4974080;28;20085;-75
2022/06/11 01:14:06;;;;;;;8.85;2.38;;;18.20;99.90;;;;;;4993980;28;20058;-75
2022/06/11 01:16:53;;;;;;;9.35;2.22;;;18.20;99.90;;;;;;4995003;28;20046;-75
2022/06/11 01:19:34;;;;;;;7.63;1.75;;;18.20;99.90;;;;;;4977705;28;20455;-75
2022/06/11 01:22:18;;;;;;;9.75;2.67;;;18.10;99.90;;;;;;4993791;28;20050;-75
2022/06/11 01:25:20;;;;;;;7.47;1.63;;;18.00;99.90;;;;;;4993614;28;20094;-76
2022/06/11 01:27:59;;;;;;;10.05;2.10;;;18.00;99.90;;;;;;4993968;28;20442;-75
2022/06/11 01:30:45;;;;;;;8.20;2.15;;;18.00;99.90;;;;;;4993970;28;20080;-75
2022/06/11 01:33:38;;;;;;;9.18;1.73;;;17.90;99.90;;;;;;4993620;28;20438;-75
2022/06/11 01:36:06;;;;;;;9.10;1.90;;;17.80;99.90;;;;;;4985399;28;20069;-76
2022/06/11 01:38:55;;;;;;;6.05;1.70;;;17.70;99.90;;;;;;4994441;28;20093;-75
2022/06/11 01:41:31;;;;;;;6.88;1.63;;;17.70;99.90;;;;;;4993509;28;20057;-75
2022/06/11 01:43:59;;;;;;;;;;;17.70;99.90;;;;;;4993471;28;20403;-76
2022/06/11 01:46:33;;;;;;;5.65;1.60;;;17.60;99.90;;;;;;4993375;28;20428;-76
2022/06/11 01:49:06;;;;;;;3.72;1.00;;;17.50;99.90;;;;;;4993491;28;20515;-75
2022/06/11 01:52:03;;;;;;;8.85;1.70;;;17.50;99.90;;;;;;4993131;28;20046;-75
2022/06/11 01:54:32;;;;;;;6.78;1.38;;;17.50;99.90;;;;;;4975898;28;20065;-75
2022/06/11 01:57:35;;;;;;;5.90;1.50;;;17.40;99.90;;;;;;4993269;28;20494;-75
2022/06/11 02:00:15;;;;;;;3.42;1.52;;;17.40;99.90;;;;;;4977163;28;20065;-75
2022/06/11 02:03:12;;;;;;;4.40;1.25;;;17.20;99.90;;;;;;4994016;28;20488;-75
2022/06/11 02:05:59;;;;;;;7.65;1.45;;;17.10;99.90;;;;;;4992993;28;20043;-75
2022/06/11 02:09:08;;;;;;;8.95;1.80;;;17.00;99.90;;;;;;4993130;28;20058;-75
2022/06/11 02:11:50;;;;;;;11.25;1.80;;;16.90;99.90;;;;;;4933370;29;20398;-75
2022/06/11 02:14:31;;;;;;;6.65;1.73;;;17.00;99.90;;;;;;4985930;28;20145;-75
2022/06/11 02:17:06;;;;;;;5.78;1.73;;;16.90;99.90;;;;;;4993383;28;20434;-75
2022/06/11 02:19:37;;;;;;;14.05;1.95;;;16.90;99.90;;;;;;4960836;28;20054;-76
2022/06/11 02:22:13;;;;;;;8.95;2.15;;;16.90;99.90;;;;;;4992910;28;20078;-75
2022/06/11 02:24:45;;;;;;;6.32;1.50;;;16.90;99.90;;;;;;4993225;28;20444;-75
2022/06/11 02:27:14;;;;;;;9.15;2.03;;;16.90;99.90;;;;;;4994022;28;20058;-75
2022/06/11 02:29:40;;;;;;;6.18;1.80;;;16.80;99.90;;;;;;4992948;28;20054;-75
2022/06/11 02:32:11;;;;;;;5.97;1.52;;;16.80;99.90;;;;;;4993954;28;20050;-75
2022/06/11 02:34:40;;;;;;;7.70;1.50;;;16.70;99.90;;;;;;4992691;28;20101;-75
2022/06/11 02:37:17;;;;;;;9.77;1.70;;;16.60;99.90;;;;;;4993910;28;20089;-75
2022/06/11 02:39:43;;;;;;;5.28;1.50;;;16.60;99.90;;;;;;4992930;28;20058;-75
2022/06/11 02:42:13;;;;;;;6.85;1.38;;;16.60;99.90;;;;;;4992578;28;20479;-75
2022/06/11 02:44:38;;;;;;;6.28;1.80;;;16.60;99.90;;;;;;4993720;28;20053;-75
2022/06/11 02:47:05;;;;;;;8.48;1.83;;;16.60;99.90;;;;;;4992977;28;20042;-75
2022/06/11 02:49:36;;;;;;;6.28;1.60;;;16.50;99.90;;;;;;4993730;28;20050;-75
2022/06/11 02:52:06;;;;;;;8.35;1.65;;;16.50;99.90;;;;;;4993909;28;20116;-75
2022/06/11 02:54:31;;;;;;;4.88;1.35;;;16.50;99.90;;;;;;4992753;28;20054;-75
2022/06/11 02:56:59;;;;;;;9.80;1.77;;;16.50;99.90;;;;;;4994335;28;20061;-75
2022/06/11 02:59:26;;;;;;;5.90;1.30;;;16.50;99.90;;;;;;4996388;28;20046;-74
2022/06/11 03:01:54;;;;;;;6.68;1.77;;;16.50;99.90;;;;;;4996281;28;20128;-75
2022/06/11 03:04:21;;;;;;;7.50;2.03;;;16.40;99.90;;;;;;4996271;28;20046;-74
2022/06/11 03:06:48;;;;;;;8.27;2.13;;;16.40;99.90;;;;;;4996214;28;20050;-75
2022/06/11 03:09:17;;;;;;;7.78;1.70;;;16.40;99.90;;;;;;4996101;28;20046;-75
2022/06/11 03:11:43;;;;;;;7.90;1.92;;;16.40;99.90;;;;;;4999063;28;20057;-75
2022/06/11 03:14:09;;;;;;;7.70;1.63;;;16.50;99.90;;;;;;4999285;28;20049;-75
2022/06/11 03:16:37;;;;;;;6.15;1.90;;;16.40;99.90;;;;;;4999434;28;20555;-75
2022/06/11 03:19:04;;;;;;;6.00;1.90;;;16.30;99.90;;;;;;4999253;28;20081;-75
2022/06/11 03:21:30;;;;;;;10.13;2.50;;;16.30;99.90;;;;;;5016567;28;20042;-74
2022/06/11 03:23:56;;;;;;;6.70;1.58;;;16.20;99.90;;;;;;5016277;28;20523;-75
2022/06/11 03:26:21;;;;;;;6.80;1.60;;;16.20;99.90;;;;;;4998854;28;20061;-75
2022/06/11 03:28:47;;;;;;;15.65;2.90;;;16.30;99.90;;;;;;5016380;28;20050;-75
2022/06/11 03:31:14;;;;;;;7.13;2.13;;;16.40;99.90;;;;;;4999212;28;20049;-75
2022/06/11 03:33:39;;;;;;;8.50;2.20;;;16.40;99.90;;;;;;5016343;28;20049;-74
2022/06/11 03:36:09;;;;;;;13.23;2.67;;;16.40;99.90;;;;;;5016374;28;20050;-75
2022/06/11 03:38:36;;;;;;;9.05;1.70;;;16.50;99.90;;;;;;5016245;28;20057;-75
2022/06/11 03:41:02;;;;;;;12.93;2.88;;;16.50;99.90;;;;;;5016121;28;20092;-75
2022/06/11 03:43:28;;;;;;;12.40;3.13;;;16.50;99.90;;;;;;4998601;28;20049;-75
2022/06/11 03:45:54;;;;;;;11.95;2.60;;;16.60;99.90;;;;;;4998464;28;20042;-74
2022/06/11 03:48:20;;;;;;;9.90;2.70;;;16.60;99.90;;;;;;5016348;28;20052;-75
2022/06/11 03:50:46;;;;;;;10.15;3.67;;;16.70;99.90;;;;;;5015063;28;20085;-76
2022/06/11 03:53:13;;;;;;;16.40;4.00;;;16.80;99.90;;;;;;4981008;28;20077;-76
2022/06/11 03:55:42;;;;;;;11.35;3.45;;;16.80;99.90;;;;;;4998431;28;20045;-75
2022/06/11 03:58:09;;;;;;;12.55;3.60;;;16.80;99.90;;;;;;4998246;28;20505;-75
2022/06/11 04:03:22;;;;;;;10.23;3.78;;;16.90;99.90;;;;;;4998459;28;20115;-75
2022/06/11 04:05:49;;;;;;;9.48;3.70;;;17.00;99.90;;;;;;5015639;28;20057;-75
2022/06/11 04:08:15;;;;;;;16.33;4.75;;;16.90;99.90;;;;;;5015627;28;20057;-75
2022/06/11 04:10:42;;;;;;;10.63;4.30;;;17.00;99.90;;;;;;4981604;28;20108;-75
2022/06/11 04:13:09;;;;;;;11.13;3.50;;;16.90;99.90;;;;;;4998033;28;20403;-74
2022/06/11 04:15:35;;;;;;;17.83;3.70;;;16.90;99.90;;;;;;4998254;28;20556;-75
2022/06/11 04:18:03;;;;;;;11.57;3.30;;;16.90;99.90;;;;;;4998263;28;20049;-75
2022/06/11 04:20:29;;;;;;;11.02;3.25;;;16.90;99.90;;;;;;4998065;28;20050;-76
2022/06/11 04:22:55;;;;;;;13.07;2.90;;;16.90;99.90;;;;;;4998062;28;20042;-74
2022/06/11 04:25:21;;;;;;;14.25;3.45;;;16.90;99.90;;;;;;5015254;28;20402;-74
2022/06/11 04:27:53;;;;;;;10.02;3.10;;;17.00;99.90;;;;;;4998152;28;20072;-75
2022/06/11 04:30:20;;;;;;;17.27;3.40;;;17.00;99.90;;;;;;4997993;28;20478;-75
2022/06/11 04:32:46;;;;;;;13.15;3.28;;;17.00;99.90;;;;;;4997812;28;20042;-75
2022/06/11 04:35:12;;;;;;;15.27;3.42;;;16.90;99.90;;;;;;4981697;28;20078;-75
2022/06/11 04:37:38;;;;;;;11.80;3.45;;;17.10;99.90;;;;;;5015121;28;20088;-75
2022/06/11 04:40:07;;;;;;;15.05;3.38;;;17.20;99.90;;;;;;4998037;28;20112;-75
2022/06/11 04:42:34;;;;;;;17.88;3.53;;;17.30;99.90;;;;;;4996778;28;20050;-75
2022/06/11 04:45:00;;;;;;;12.85;3.28;;;17.40;99.90;;;;;;4997517;28;20050;-75
2022/06/11 04:47:28;;;;;;;13.52;2.85;;;17.40;99.90;;;;;;4997615;28;20056;-75
2022/06/11 04:49:56;;;;;;;12.82;3.17;;;17.40;99.90;;;;;;4997562;28;20092;-75
2022/06/11 04:52:22;;;;;;;10.73;2.88;;;17.50;99.90;;;;;;4997805;28;20394;-74
2022/06/11 04:54:48;;;;;;;13.15;3.20;;;17.60;99.90;;;;;;5015053;28;20129;-74
2022/06/11 04:57:14;;;;;;;10.38;2.85;;;17.70;99.90;;;;;;4997522;28;20046;-75
2022/06/11 04:59:40;;;;;;;13.13;3.17;;;17.70;99.90;;;;;;4997461;28;20065;-74
2022/06/11 05:02:06;;;;;;;14.77;4.00;;;17.70;99.90;;;;;;4997158;28;20143;-75
2022/06/11 05:04:32;;;;;;;17.23;3.97;;;17.80;99.90;;;;;;4997218;28;20128;-75
2022/06/11 05:06:58;;;;;;;14.32;3.83;;;17.90;99.90;;;;;;5014838;28;20064;-75
2022/06/11 05:09:26;;;;;;;13.98;4.25;;;17.80;99.90;;;;;;4981551;28;20486;-74
2022/06/11 05:11:52;;;;;;;14.55;4.15;;;17.80;99.90;;;;;;4996586;28;20426;-74
2022/06/11 05:14:19;;;;;;;18.15;4.57;;;17.60;99.90;;;;;;4997174;28;20061;-74
2022/06/11 05:16:46;;;;;;;14.10;3.85;;;17.70;99.90;;;;;;5014389;28;20045;-75
2022/06/11 05:19:14;;;;;;;22.40;4.20;;;17.90;99.90;;;;;;4980446;28;20046;-75
2022/06/11 05:21:40;;;;;;;20.13;4.20;;;17.80;99.90;;;;;;4997032;28;20053;-74
2022/06/11 05:24:07;;;;;;;11.43;3.65;;;17.90;99.90;;;;;;4996924;28;20138;-74
2022/06/11 05:26:37;;;;;;;20.60;3.97;;;18.00;99.90;;;;;;4997020;28;20049;-74
2022/06/11 05:29:04;;;;;;;18.35;3.72;;;17.70;99.90;;;;;;4997004;28;20052;-75
2022/06/11 05:31:30;;;;;;;17.05;3.97;;;17.80;99.90;;;;;;4996900;28;20050;-74
2022/06/11 05:33:55;;;;;;;18.27;4.55;;;17.80;99.90;;;;;;4997256;28;20077;-75
2022/06/11 05:36:21;;;;;;;14.20;3.50;;;17.90;99.90;;;;;;4996976;28;20041;-74
2022/06/11 05:38:47;;;;;;;16.48;3.33;;;17.80;99.90;;;;;;4996747;28;20132;-74
2022/06/11 05:41:13;;;;;;;16.77;4.18;;;17.90;99.90;;;;;;4996739;28;20049;-74
2022/06/11 05:43:39;;;;;;;18.55;4.03;;;18.00;99.90;;;;;;4996445;28;20054;-74
2022/06/11 05:46:13;;;;;;;22.08;3.85;;;18.20;99.90;;;;;;5013842;28;20497;-75
2022/06/11 05:48:47;;;;;;;27.05;4.93;;;17.90;99.90;;;;;;4996678;28;20502;-74
2022/06/11 05:51:18;;;;;;;19.85;3.83;;;18.00;99.90;;;;;;5013671;28;20552;-74
2022/06/11 05:53:44;;;;;;;24.05;4.82;;;18.20;99.90;;;;;;4996838;28;20399;-74
2022/06/11 05:56:10;;;;;;;23.35;4.15;;;18.20;99.90;;;;;;4996269;28;20053;-74
2022/06/11 05:58:40;;;;;;;21.40;3.80;;;18.30;99.90;;;;;;5013821;28;20057;-74
2022/06/11 06:01:07;;;;;;;22.15;4.55;;;18.20;99.90;;;;;;4996511;28;20053;-74
2022/06/11 06:03:33;;;;;;;28.17;4.35;;;18.20;99.90;;;;;;4996340;28;20038;-74
2022/06/11 06:05:59;;;;;;;20.52;3.80;;;18.20;99.90;;;;;;5013679;28;20100;-75
2022/06/11 06:08:24;;;;;;;22.25;3.90;;;18.30;99.90;;;;;;5013438;28;20222;-74
2022/06/11 06:10:50;;;;;;;21.77;4.60;;;18.30;99.90;;;;;;5013285;28;20060;-74
2022/06/11 06:16:00;;;;;;;27.83;4.60;;;18.50;99.90;;;;;;4996578;28;20116;-75
2022/06/11 06:18:26;;;;;;;22.92;4.18;;;18.60;99.90;;;;;;4996295;28;20065;-75
2022/06/11 06:20:51;;;;;;;25.35;5.32;;;18.70;99.90;;;;;;4980036;28;20050;-74
2022/06/11 06:23:17;;;;;;;21.48;4.25;;;18.70;99.90;;;;;;5013699;28;20054;-74
2022/06/11 06:25:43;;;;;;;20.02;4.22;;;18.80;99.90;;;;;;4980389;28;20469;-75
2022/06/11 06:28:09;;;;;;;22.23;4.57;;;18.90;99.90;;;;;;5013275;28;20065;-74
2022/06/11 06:30:35;;;;;;;26.15;4.85;;;18.70;99.90;;;;;;4996265;28;20085;-74
2022/06/11 06:33:00;;;;;;;26.70;5.35;;;18.40;99.90;;;;;;4999661;28;20136;-74
2022/06/11 06:35:26;;;;;;;20.58;4.82;;;18.30;99.90;;;;;;5017364;28;20037;-74
2022/06/11 06:37:52;;;;;;;26.77;4.43;;;18.40;99.90;;;;;;5000067;28;20054;-75
2022/06/11 06:40:18;;;;;;;26.65;4.75;;;18.60;99.90;;;;;;5017345;28;20096;-74
2022/06/11 06:42:43;;;;;;;26.67;4.65;;;18.70;99.90;;;;;;5016946;28;20042;-74
2022/06/11 06:45:09;;;;;;;27.67;5.20;;;18.90;99.90;;;;;;5017175;28;20168;-74
2022/06/11 06:47:35;;;;;;;24.23;4.53;;;19.00;99.90;;;;;;4999865;28;20045;-74
2022/06/11 06:50:01;;;;;;;32.78;5.05;;;19.10;99.90;;;;;;4999865;28;20482;-74
2022/06/11 06:52:27;;;;;;;27.75;5.72;;;19.10;99.90;;;;;;4999680;28;20050;-74
2022/06/11 06:54:53;;;;;;;23.15;4.55;;;19.20;99.90;;;;;;4999825;28;20065;-74
2022/06/11 06:57:19;;;;;;;22.50;5.15;;;19.30;99.90;;;;;;4999754;28;20429;-74
2022/06/11 06:59:44;;;;;;;27.65;5.38;;;19.30;99.90;;;;;;5016970;28;20097;-74
2022/06/11 07:02:10;;;;;;;23.70;5.18;;;19.30;99.90;;;;;;4999681;28;20053;-74
2022/06/11 07:04:37;;;;;;;22.65;5.13;;;19.20;99.90;;;;;;4999486;28;20046;-74
2022/06/11 07:07:04;;;;;;;21.63;4.90;;;19.30;99.90;;;;;;4999538;28;20061;-74
2022/06/11 07:09:30;;;;;;;27.08;5.28;;;19.50;99.90;;;;;;5016525;28;20084;-74
2022/06/11 07:11:56;;;;;;;32.30;5.57;;;19.60;99.90;;;;;;4982355;28;20459;-74
2022/06/11 07:14:22;;;;;;;32.38;5.53;;;19.30;99.90;;;;;;4999404;28;20053;-74
2022/06/11 07:16:51;;;;;;;28.83;4.82;;;19.30;99.90;;;;;;4983110;28;20121;-75
2022/06/11 07:19:23;;;;;;;32.40;5.55;;;19.30;99.90;;;;;;5016588;28;20054;-74
2022/06/11 07:21:52;;;;;;;22.25;4.68;;;19.20;99.90;;;;;;5016561;28;20049;-74
2022/06/11 07:24:22;;;;;;;27.35;4.75;;;19.30;99.90;;;;;;5016120;28;20418;-74
2022/06/11 07:26:51;;;;;;;28.13;4.72;;;19.40;99.90;;;;;;5016433;28;20050;-75
2022/06/11 07:29:28;;;;;;;24.75;5.13;;;19.50;99.90;;;;;;5016400;28;20045;-74
2022/06/11 07:32:01;;;;;;;28.63;4.50;;;19.70;99.90;;;;;;4999155;28;20062;-74
2022/06/11 07:34:28;;;;;;;27.42;4.78;;;19.70;99.90;;;;;;4999002;28;20054;-74
2022/06/11 07:36:56;;;;;;;54.92;5.95;;;19.40;99.90;;;;;;4999045;28;20054;-74
2022/06/11 07:39:21;;;;;;;31.48;5.40;;;19.20;99.90;;;;;;4998723;28;20124;-74
2022/06/11 07:41:47;;;;;;;28.85;4.97;;;19.10;99.90;;;;;;4998419;28;20134;-74
2022/06/11 07:44:13;;;;;;;27.40;4.65;;;19.40;99.90;;;;;;4998648;28;20054;-74
2022/06/11 07:46:38;;;;;;;22.70;4.25;;;19.70;99.90;;;;;;4999080;28;20489;-74
2022/06/11 07:49:04;;;;;;;28.10;5.00;;;20.00;99.90;;;;;;4966421;28;20549;-75
2022/06/11 07:51:30;;;;;;;23.67;4.40;;;20.20;99.90;;;;;;5016010;28;20049;-74
2022/06/11 07:53:57;;;;;;;27.95;4.95;;;20.10;99.90;;;;;;5015922;28;20045;-73
2022/06/11 07:56:22;;;;;;;29.80;5.03;;;19.90;99.90;;;;;;5015917;28;20446;-74
2022/06/11 07:58:52;;;;;;;26.70;4.10;;;19.70;99.90;;;;;;4998642;28;20139;-74
2022/06/11 08:01:18;;;;;;;31.33;4.43;;;19.70;99.90;;;;;;5015979;28;20062;-73
2022/06/11 08:03:44;;;;;;;29.67;4.68;;;19.70;99.90;;;;;;4998208;28;20132;-74
2022/06/11 08:06:11;;;;;;;28.83;4.60;;;19.60;99.90;;;;;;5015656;28;20045;-73
2022/06/11 08:08:36;;;;;;;26.90;4.57;;;19.70;99.90;;;;;;4998180;28;20153;-73
2022/06/11 08:11:04;;;;;;;22.30;4.10;;;19.80;99.90;;;;;;4981703;28;20137;-74
2022/06/11 08:13:30;;;;;;;27.77;4.70;;;19.60;99.90;;;;;;4981692;28;20060;-75
2022/06/11 08:15:57;;;;;;;27.45;4.97;;;19.80;99.90;;;;;;4998235;28;20045;-75
2022/06/11 08:18:24;;;;;;;26.92;5.40;;;19.90;99.90;;;;;;4998155;28;20061;-73
2022/06/11 08:20:51;;;;;;;24.83;4.85;;;20.20;99.90;;;;;;5015639;28;20395;-76
2022/06/11 08:23:17;;;;;;;28.02;5.18;;;20.40;99.90;;;;;;4999506;28;20050;-74
2022/06/11 08:25:43;;;;;;;24.95;4.15;;;20.60;99.90;;;;;;5018419;28;20125;-75
2022/06/11 08:28:12;;;;;;;22.42;3.67;;;20.70;99.90;;;;;;5015314;28;20132;-72
2022/06/11 08:30:38;;;;;;;24.42;4.95;;;20.60;99.90;;;;;;5015236;28;20133;-72
2022/06/11 08:33:04;;;;;;;27.48;4.82;;;20.60;99.90;;;;;;5015164;28;20120;-72
2022/06/11 08:35:31;;;;;;;19.73;3.78;;;20.60;99.90;;;;;;4997681;28;20524;-72
2022/06/11 08:37:57;;;;;;;26.65;4.38;;;20.60;99.90;;;;;;5015099;28;20137;-73
2022/06/11 08:40:35;;;;;;;28.15;5.70;;;20.80;99.90;;;;;;4981642;28;20050;-72
2022/06/11 08:43:21;;;;;;;28.90;4.53;;;20.70;99.90;;;;;;5014782;28;20572;-72
2022/06/11 08:46:10;;;;;;;;;;;21.00;99.90;;;;;;5015441;28;20038;-73
2022/06/11 08:48:56;;;;;;;25.52;4.30;;;21.30;99.90;;;;;;5014734;28;19925;-73
2022/06/11 08:51:36;;;;;;;19.20;4.07;;;21.20;99.90;;;;;;4997670;28;20049;-73
2022/06/11 08:54:08;;;;;;;29.77;5.25;;;21.20;99.90;;;;;;5014251;28;20108;-73
2022/06/11 08:56:39;;;;;;;21.60;3.55;;;21.40;99.90;;;;;;5015147;28;20120;-73
2022/06/11 08:59:30;;;;;;;21.38;4.60;;;21.40;99.90;;;;;;5014755;28;20112;-72
2022/06/11 09:02:30;;;;;;;28.17;4.72;;;21.30;99.90;;;;;;5014766;28;20049;-74
2022/06/11 09:05:30;;;;;;;20.90;3.85;;;21.20;99.90;;;;;;4972412;28;20185;-73
2022/06/11 09:08:33;;;;;;;24.98;4.63;;;21.00;99.90;;;;;;5014644;28;20137;-73
2022/06/11 09:11:12;;;;;;;21.67;4.20;;;21.00;99.90;;;;;;5014585;28;20061;-73
2022/06/11 09:14:06;;;;;;;21.73;3.38;;;21.00;99.90;;;;;;5014332;28;20097;-72
2022/06/11 09:16:44;;;;;;;23.67;3.85;;;20.70;99.90;;;;;;5014527;28;20045;-73
2022/06/11 09:19:37;;;;;;;20.45;3.28;;;20.60;99.90;;;;;;4997106;28;20090;-73
2022/06/11 09:22:18;;;;;;;17.27;3.45;;;20.80;99.90;;;;;;4997088;28;20046;-73
2022/06/11 09:25:05;;;;;;;21.65;3.20;;;21.20;99.90;;;;;;5014182;28;20498;-72
2022/06/11 09:27:30;;;;;;;;;;;21.10;99.90;;;;;;4997691;28;20061;-74
2022/06/11 09:30:07;;;;;;;18.87;2.83;;;21.00;99.90;;;;;;4996983;28;19921;-71
2022/06/11 09:32:41;;;;;;;20.63;3.60;;;21.10;99.90;;;;;;4996807;28;20545;-72
2022/06/11 09:35:26;;;;;;;14.65;3.22;;;21.30;99.90;;;;;;5013222;28;20126;-72
2022/06/11 09:38:05;;;;;;;19.20;3.38;;;21.40;99.90;;;;;;4980334;28;20100;-73
2022/06/11 09:40:50;;;;;;;18.42;3.40;;;21.40;99.90;;;;;;4996999;28;20057;-73
2022/06/11 09:43:51;;;;;;;19.63;3.03;;;21.70;99.90;;;;;;5013960;28;20123;-72
2022/06/11 09:46:44;;;;;;;15.82;3.00;;;22.00;99.90;;;;;;5014068;28;20455;-73
2022/06/11 09:49:28;;;;;;;17.60;2.78;;;22.30;99.90;;;;;;4998729;28;20054;-73
2022/06/11 09:52:20;;;;;;;13.48;2.40;;;22.50;99.90;;;;;;5014105;28;20049;-72
2022/06/11 09:54:54;;;;;;;16.98;2.72;;;22.60;99.90;;;;;;5013943;28;20131;-73
2022/06/11 09:57:35;;;;;;;19.67;3.38;;;22.80;99.90;;;;;;5013847;28;20046;-73
2022/06/11 10:00:10;;;;;;;10.05;2.47;;;22.80;99.90;;;;;;5013820;28;20131;-73
2022/06/11 10:03:10;;;;;;;18.05;2.80;;;22.70;99.90;;;;;;4996413;28;20053;-73
2022/06/11 10:06:03;;;;;;;14.70;2.63;;;22.60;99.90;;;;;;5013656;28;20050;-72
2022/06/11 10:08:35;;;;;;;16.40;2.45;;;22.80;99.90;;;;;;5013800;28;20038;-72
2022/06/11 10:11:04;;;;;;;11.77;2.40;;;22.90;99.90;;;;;;5013663;28;20475;-73
2022/06/11 10:13:41;;;;;;;13.55;2.35;;;23.10;99.90;;;;;;5013494;28;20042;-72
2022/06/11 10:16:37;;;;;;;15.00;2.40;;;23.30;99.90;;;;;;5013657;28;20042;-72
2022/06/11 10:19:19;;;;;;;14.70;2.28;;;22.70;99.90;;;;;;5011800;28;20058;-72
2022/06/11 10:21:55;;;;;;;11.45;2.20;;;22.50;99.90;;;;;;5013609;28;20045;-72
2022/06/11 10:24:24;;;;;;;12.07;2.35;;;22.20;99.90;;;;;;5013831;28;20120;-72
2022/06/11 10:26:56;;;;;;;15.63;2.70;;;22.10;99.90;;;;;;5013589;28;20479;-72
2022/06/11 10:29:34;;;;;;;16.70;3.50;;;22.20;99.90;;;;;;5013804;28;20045;-72
2022/06/11 10:32:15;;;;;;;16.52;2.75;;;22.20;99.90;;;;;;5013604;28;20050;-72
2022/06/11 10:34:51;;;;;;;15.40;2.72;;;22.40;99.90;;;;;;5013623;28;20065;-72
2022/06/11 10:37:45;;;;;;;17.73;2.88;;;22.10;99.90;;;;;;4996341;28;20081;-72
2022/06/11 10:40:35;;;;;;;14.60;2.45;;;22.00;99.90;;;;;;5013547;28;20093;-72
2022/06/11 10:43:13;;;;;;;12.90;2.33;;;22.00;99.90;;;;;;5013282;28;20042;-72
2022/06/11 10:45:39;;;;;;;14.27;2.33;;;22.20;99.90;;;;;;5013093;28;20495;-72
2022/06/11 10:48:16;;;;;;;13.75;2.55;;;22.20;99.90;;;;;;5013058;28;20085;-72
2022/06/11 10:50:42;;;;;;;14.88;3.03;;;22.20;99.90;;;;;;4995794;28;20060;-72
2022/06/11 10:53:25;;;;;;;14.30;2.45;;;22.20;99.90;;;;;;5013413;28;20117;-72
2022/06/11 10:56:01;;;;;;;12.63;2.85;;;22.20;99.90;;;;;;5013395;28;20072;-72
2022/06/11 10:58:30;;;;;;;18.05;3.30;;;22.00;99.90;;;;;;4996102;28;20479;-71
2022/06/11 11:01:19;;;;;;;12.05;2.53;;;22.00;99.90;;;;;;5013992;28;20081;-70
2022/06/11 11:03:58;;;;;;;14.10;2.67;;;22.30;99.90;;;;;;4980763;28;20120;-71
2022/06/11 11:06:34;;;;;;;15.93;2.42;;;22.40;99.90;;;;;;5013621;28;20041;-71
2022/06/11 11:09:06;;;;;;;16.35;2.30;;;22.10;99.90;;;;;;5013204;28;20116;-72
2022/06/11 11:12:00;;;;;;;13.63;2.22;;;22.40;99.90;;;;;;4979328;28;20049;-71
2022/06/11 11:14:39;;;;;;;15.30;2.95;;;22.80;99.90;;;;;;5010254;28;20045;-71
2022/06/11 11:17:17;;;;;;;13.70;2.63;;;23.20;99.90;;;;;;5013372;28;20045;-71
2022/06/11 11:20:29;;;;;;;18.33;2.78;;;23.30;99.90;;;;;;5016712;28;20049;-71
2022/06/11 11:22:34;;;;;;;15.77;3.05;;;23.20;99.90;;;;;;5016390;28;20569;-71
2022/06/11 11:25:01;;;;;;;15.45;3.13;;;22.90;99.70;;;;;;5016716;28;20085;-72
2022/06/11 11:27:34;;;;;;;14.05;2.00;;;22.80;99.90;;;;;;5016457;28;20046;-72
2022/06/11 11:30:15;;;;;;;13.05;2.45;;;23.00;99.90;;;;;;5016445;28;20052;-73
2022/06/11 11:32:43;;;;;;;10.25;2.10;;;23.20;99.90;;;;;;5016764;28;20049;-72
2022/06/11 11:35:24;;;;;;;13.32;2.60;;;23.50;99.90;;;;;;5016289;28;20085;-79
2022/06/11 11:38:02;;;;;;;16.33;2.45;;;23.80;99.90;;;;;;4997650;28;20464;-75
2022/06/11 11:40:47;;;;;;;13.20;2.50;;;23.90;99.90;;;;;;5015919;28;20661;-74
2022/06/11 11:43:14;;;;;;;12.43;2.42;;;23.80;99.90;;;;;;5015811;28;20096;-75
2022/06/11 11:46:02;;;;;;;16.13;3.22;;;23.90;99.90;;;;;;4998472;28;20141;-74
2022/06/11 11:48:30;;;;;;;13.00;2.42;;;23.40;99.90;;;;;;5015937;28;20478;-74
2022/06/11 11:51:05;;;;;;;12.20;2.67;;;23.00;99.90;;;;;;5014576;28;20050;-75
2022/06/11 11:53:40;;;;;;;11.65;2.40;;;22.90;99.90;;;;;;5015089;28;20042;-74
2022/06/11 11:56:33;;;;;;;18.05;3.47;;;22.70;99.70;;;;;;4998786;28;20107;-74
2022/06/11 11:59:22;;;;;;;12.02;2.03;;;23.20;99.90;;;;;;5009639;28;20402;-73
2022/06/11 12:01:53;;;;;;;20.45;2.60;;;23.50;99.90;;;;;;5015851;28;20053;-73
2022/06/11 12:04:32;;;;;;;14.38;2.28;;;23.50;99.90;;;;;;5015757;28;20111;-74
2022/06/11 12:07:03;;;;;;;12.88;2.50;;;23.60;99.90;;;;;;5017207;28;20064;-73
2022/06/11 12:09:55;;;;;;;15.30;2.50;;;23.20;99.90;;;;;;5015452;28;20474;-73
2022/06/11 12:12:28;;;;;;;16.15;2.20;;;23.50;99.90;;;;;;4998170;28;20140;-74
2022/06/11 12:14:59;;;;;;;10.88;1.88;;;23.10;99.70;;;;;;4998897;28;20058;-90
2022/06/11 12:17:37;;;;;;;11.73;1.85;;;22.80;99.90;;;;;;4998372;28;20050;-74
2022/06/11 12:20:31;;;;;;;16.05;2.35;;;22.90;99.90;;;;;;5015653;28;20085;-74
2022/06/11 12:23:22;;;;;;;11.35;1.95;;;23.50;99.80;;;;;;5001158;28;20057;-74
2022/06/11 12:25:58;;;;;;;15.52;1.98;;;23.80;99.90;;;;;;4982043;28;20046;-78
2022/06/11 12:28:49;;;;;;;16.38;2.22;;;24.00;99.90;;;;;;5014911;28;20042;-75
2022/06/11 12:31:14;;;;;;;11.82;2.15;;;23.60;99.70;;;;;;4997983;28;20049;-74
2022/06/11 12:33:43;;;;;;;14.40;2.15;;;23.10;99.60;;;;;;4997853;28;20498;-73
2022/06/11 12:36:15;;;;;;;9.15;2.00;;;23.10;99.50;;;;;;5015006;28;20095;-71
2022/06/11 12:38:43;;;;;;;11.30;2.13;;;22.90;99.20;;;;;;5015219;28;20081;-71
2022/06/11 12:41:38;;;;;;;12.82;2.00;;;23.00;99.90;;;;;;5014752;28;20568;-71
2022/06/11 12:44:43;;;;;;;11.85;2.50;;;23.40;99.70;;;;;;5014430;28;20505;-72
2022/06/11 12:47:27;;;;;;;9.82;1.58;;;23.80;99.00;;;;;;5015272;28;20390;-71
2022/06/11 12:50:10;;;;;;;9.13;1.40;;;24.10;99.40;;;;;;5015067;28;20486;-70
2022/06/11 12:53:11;;;;;;;8.30;1.63;;;24.60;99.10;;;;;;5014961;28;20054;-69
2022/06/11 12:55:58;;;;;;;7.95;1.73;;;24.50;98.70;;;;;;5014895;28;20050;-69
2022/06/11 12:58:42;;;;;;;11.98;1.58;;;24.20;99.00;;;;;;4997438;28;20053;-71
2022/06/11 13:01:22;;;;;;;12.25;1.75;;;24.60;99.30;;;;;;5014817;28;20057;-71
2022/06/11 13:04:23;;;;;;;10.85;2.00;;;24.50;99.30;;;;;;4997783;28;20041;-70
2022/06/11 13:07:00;;;;;;;10.43;1.60;;;24.40;99.10;;;;;;5014724;28;20056;-72
2022/06/11 13:09:33;;;;;;;10.25;1.65;;;24.40;98.80;;;;;;5014991;28;20095;-71
2022/06/11 13:12:01;;;;;;;10.65;1.75;;;24.70;98.70;;;;;;5014272;28;20145;-86
2022/06/11 13:14:46;;;;;;;8.00;2.00;;;24.60;99.00;;;;;;5014459;28;20136;-71
2022/06/11 13:17:46;;;;;;;10.70;1.70;;;24.50;98.80;;;;;;5014754;28;20081;-71